createdAt,value
2022-09-21T00:00:15.435Z,99205.83
2022-09-21T00:01:26.376Z,99209.34
2022-09-21T00:02:29.354Z,99212.84
2022-09-21T00:03:32.161Z,99208.50
2022-09-21T00:04:34.287Z,99211.05
2022-09-21T00:05:36.375Z,99210.17
2022-09-21T00:06:38.800Z,99214.56
2022-09-21T00:07:42.238Z,99215.52
2022-09-21T00:08:44.882Z,99215.52
2022-09-21T00:09:47.366Z,99212.73
2022-09-21T00:10:50.146Z,99211.89
2022-09-21T00:11:56.317Z,99211.05
2022-09-21T00:12:56.972Z,99215.41
2022-09-21T00:14:02.578Z,99215.41
2022-09-21T00:15:06.973Z,99204.72
2022-09-21T00:16:09.804Z,99211.77
2022-09-21T00:17:12.075Z,99207.39
2022-09-21T00:18:15.911Z,99208.37
2022-09-21T00:19:18.309Z,99206.55
2022-09-21T00:20:21.631Z,99204.83
2022-09-21T00:21:25.579Z,99205.70
2022-09-21T00:22:27.995Z,99204.72
2022-09-21T00:23:30.194Z,99210.06
2022-09-21T00:24:32.892Z,99193.19
2022-09-21T00:25:35.182Z,99201.20
2022-09-21T00:26:37.387Z,99211.05
2022-09-21T00:27:39.771Z,99203.03
2022-09-21T00:28:41.915Z,99195.98
2022-09-21T00:29:44.024Z,99202.16
2022-09-21T00:30:46.508Z,99202.16
2022-09-21T00:31:48.592Z,99208.37
2022-09-21T00:32:52.471Z,99208.37
2022-09-21T00:33:54.638Z,99203.03
2022-09-21T00:34:59.884Z,99204.00
2022-09-21T00:36:04.124Z,99206.66
2022-09-21T00:37:06.955Z,99203.16
2022-09-21T00:38:09.057Z,99198.65
2022-09-21T00:39:11.419Z,99198.65
2022-09-21T00:40:13.841Z,99195.22
2022-09-21T00:41:16.036Z,99193.42
2022-09-21T00:42:26.624Z,99193.42
2022-09-21T00:43:29.675Z,99193.31
2022-09-21T00:44:32.669Z,99200.48
2022-09-21T00:45:34.998Z,99188.92
2022-09-21T00:46:37.360Z,99193.42
2022-09-21T00:47:40.838Z,99192.55
2022-09-21T00:48:42.966Z,99204.11
2022-09-21T00:49:47.557Z,99198.89
2022-09-21T00:50:52.008Z,99198.13
2022-09-21T00:51:54.741Z,99193.66
2022-09-21T00:52:57.890Z,99199.00
2022-09-21T00:54:02.153Z,99195.46
2022-09-21T00:55:08.307Z,99196.33
2022-09-21T00:56:11.878Z,99192.78
2022-09-21T00:57:14.160Z,99194.50
2022-09-21T00:58:19.301Z,99190.11
2022-09-21T00:59:22.014Z,99193.75
2022-09-21T01:00:26.259Z,99192.78
2022-09-21T01:01:28.409Z,99188.41
2022-09-21T01:02:30.775Z,99191.95
2022-09-21T01:03:32.929Z,99188.41
2022-09-21T01:04:35.128Z,99190.11
2022-09-21T01:05:37.242Z,99191.95
2022-09-21T01:06:39.564Z,99187.45
2022-09-21T01:07:44.056Z,99185.73
2022-09-21T01:08:47.190Z,99199.84
2022-09-21T01:09:51.248Z,99193.66
2022-09-21T01:12:40.688Z,99185.81
2022-09-21T01:14:07.940Z,99185.64
2022-09-21T01:15:23.984Z,99190.23
2022-09-21T01:16:40.736Z,99193.86
2022-09-21T01:17:52.318Z,99187.68
2022-09-21T01:19:03.898Z,99184.28
2022-09-21T01:20:16.048Z,99187.91
2022-09-21T01:21:25.178Z,99184.48
2022-09-21T01:24:01.767Z,99183.81
2022-09-21T01:25:32.136Z,99184.72
2022-09-21T01:27:04.172Z,99184.72
2022-09-21T01:28:26.698Z,99183.01
2022-09-21T01:30:51.066Z,99181.50
2022-09-21T01:32:20.837Z,99181.50
2022-09-21T01:33:29.316Z,99186.00
2022-09-21T01:34:47.334Z,99179.81
2022-09-21T01:35:57.569Z,99185.16
2022-09-21T01:37:02.724Z,99183.45
2022-09-21T01:38:07.168Z,99175.43
2022-09-21T01:39:11.616Z,99181.73
2022-09-21T01:40:20.836Z,99186.11
2022-09-21T01:41:24.839Z,99193.28
2022-09-21T01:42:27.102Z,99185.27
2022-09-21T01:44:49.979Z,99186.31
2022-09-21T01:45:53.548Z,99189.62
2022-09-21T01:46:56.155Z,99190.50
2022-09-21T01:47:59.350Z,99190.50
2022-09-21T01:49:07.439Z,99194.85
2022-09-21T01:50:10.185Z,99192.18
2022-09-21T01:51:14.243Z,99193.89
2022-09-21T01:52:28.693Z,99192.06
2022-09-21T01:54:54.870Z,99192.91
2022-09-21T01:56:24.561Z,99195.52
2022-09-21T01:57:49.382Z,99186.67
2022-09-21T01:59:04.894Z,99194.73
2022-09-21T02:00:08.409Z,99191.14
2022-09-21T02:01:17.646Z,99192.97
2022-09-21T02:02:45.188Z,99190.30
2022-09-21T02:03:53.805Z,99192.97
2022-09-21T02:04:56.336Z,99188.55
2022-09-21T02:05:58.513Z,99187.71
2022-09-21T02:07:00.985Z,99192.18
2022-09-21T02:08:05.322Z,99187.71
2022-09-21T02:09:08.544Z,99178.22
2022-09-21T02:10:15.067Z,99178.22
2022-09-21T02:11:17.328Z,99189.39
2022-09-21T02:12:19.578Z,99194.73
2022-09-21T02:13:22.538Z,99189.39
2022-09-21T02:14:24.693Z,99189.39
2022-09-21T02:15:34.813Z,99192.85
2022-09-21T02:16:46.581Z,99194.69
2022-09-21T02:19:22.257Z,99185.73
2022-09-21T02:22:02.283Z,99188.41
2022-09-21T02:23:20.499Z,99195.41
2022-09-21T02:24:29.653Z,99197.23
2022-09-21T02:27:31.156Z,99199.20
2022-09-21T02:30:18.193Z,99195.70
2022-09-21T02:31:24.358Z,99200.98
2022-09-21T02:32:46.895Z,99200.19
2022-09-21T02:34:10.982Z,99201.06
2022-09-21T02:35:33.733Z,99208.20
2022-09-21T02:38:10.050Z,99207.57
2022-09-21T02:39:17.876Z,99209.31
2022-09-21T02:40:27.437Z,99209.31
2022-09-21T02:42:09.612Z,99205.77
2022-09-21T02:43:23.862Z,99203.09
2022-09-21T02:44:29.916Z,99211.11
2022-09-21T02:45:35.041Z,99204.05
2022-09-21T02:46:43.280Z,99211.22
2022-09-21T02:47:55.247Z,99207.71
2022-09-21T02:49:00.004Z,99212.18
2022-09-21T02:51:20.786Z,99214.10
2022-09-21T02:52:23.279Z,99218.28
2022-09-21T02:53:28.061Z,99207.59
2022-09-21T02:54:31.463Z,99214.65
2022-09-21T02:55:33.593Z,99213.66
2022-09-21T02:56:35.913Z,99224.23
2022-09-21T02:57:38.098Z,99219.88
2022-09-21T02:58:43.713Z,99214.42
2022-09-21T02:59:46.529Z,99210.76
2022-09-21T03:00:49.477Z,99215.17
2022-09-21T03:01:51.824Z,99219.56
2022-09-21T03:02:54.100Z,99217.73
2022-09-21T03:03:56.160Z,99220.41
2022-09-21T03:04:59.324Z,99223.83
2022-09-21T03:06:01.567Z,99223.83
2022-09-21T03:07:03.934Z,99225.55
2022-09-21T03:08:06.022Z,99221.05
2022-09-21T03:09:08.436Z,99219.22
2022-09-21T03:10:12.109Z,99216.42
2022-09-21T03:11:18.052Z,99217.30
2022-09-21T03:12:20.655Z,99221.68
2022-09-21T03:13:24.176Z,99218.89
2022-09-21T03:14:26.934Z,99218.89
2022-09-21T03:15:30.116Z,99217.06
2022-09-21T03:16:32.541Z,99220.46
2022-09-21T03:17:35.241Z,99210.24
2022-09-21T03:18:39.405Z,99227.63
2022-09-21T03:19:42.305Z,99228.39
2022-09-21T03:20:44.845Z,99221.22
2022-09-21T03:21:47.627Z,99217.70
2022-09-21T03:22:50.132Z,99210.01
2022-09-21T03:23:52.460Z,99210.01
2022-09-21T03:24:55.010Z,99219.38
2022-09-21T03:25:57.675Z,99218.42
2022-09-21T03:27:00.422Z,99213.92
2022-09-21T03:28:02.605Z,99213.92
2022-09-21T03:29:04.804Z,99216.52
2022-09-21T03:30:08.421Z,99209.45
2022-09-21T03:31:10.660Z,99216.52
2022-09-21T03:32:13.722Z,99216.52
2022-09-21T03:33:16.833Z,99219.19
2022-09-21T03:34:18.982Z,99217.47
2022-09-21T03:35:22.315Z,99218.31
2022-09-21T03:36:25.049Z,99223.53
2022-09-21T03:37:27.110Z,99226.33
2022-09-21T03:38:29.237Z,99221.86
2022-09-21T03:39:31.301Z,99225.37
2022-09-21T03:40:34.280Z,99227.20
2022-09-21T03:41:36.672Z,99234.22
2022-09-21T03:42:39.870Z,99226.20
2022-09-21T03:43:42.803Z,99229.75
2022-09-21T03:44:44.945Z,99221.73
2022-09-21T03:45:47.440Z,99224.30
2022-09-21T03:46:50.899Z,99225.25
2022-09-21T03:47:56.665Z,99222.58
2022-09-21T03:48:59.819Z,99226.09
2022-09-21T03:50:05.570Z,99229.75
2022-09-21T03:51:06.419Z,99227.92
2022-09-21T03:52:09.892Z,99232.42
2022-09-21T03:53:11.977Z,99232.55
2022-09-21T03:54:14.649Z,99227.20
2022-09-21T03:55:17.503Z,99228.04
2022-09-21T03:56:19.921Z,99228.88
2022-09-21T03:57:22.194Z,99233.38
2022-09-21T03:58:24.346Z,99230.59
2022-09-21T03:59:26.702Z,99227.08
2022-09-21T04:00:29.787Z,99231.44
2022-09-21T04:01:32.456Z,99245.66
2022-09-21T04:02:36.288Z,99236.78
2022-09-21T04:03:38.572Z,99239.45
2022-09-21T04:04:41.209Z,99240.33
2022-09-21T04:05:43.286Z,99237.65
2022-09-21T04:06:45.606Z,99246.51
2022-09-21T04:08:07.504Z,99247.37
2022-09-21T04:09:10.192Z,99244.71
2022-09-21T04:10:15.265Z,99254.52
2022-09-21T04:11:17.726Z,99258.16
2022-09-21T04:12:22.631Z,99248.34
2022-09-21T04:13:24.796Z,99252.81
2022-09-21T04:14:26.949Z,99250.25
2022-09-21T04:15:29.226Z,99247.58
2022-09-21T04:16:31.552Z,99252.92
2022-09-21T04:17:33.763Z,99252.92
2022-09-21T04:18:37.495Z,99256.47
2022-09-21T04:19:39.689Z,99255.59
2022-09-21T04:20:42.997Z,99256.47
2022-09-21T04:21:46.241Z,99252.81
2022-09-21T04:22:48.953Z,99259.87
2022-09-21T04:23:51.067Z,99262.54
2022-09-21T04:24:56.164Z,99253.68
2022-09-21T04:26:00.101Z,99256.35
2022-09-21T04:27:04.113Z,99252.81
2022-09-21T04:28:08.056Z,99258.16
2022-09-21T04:29:14.011Z,99253.80
2022-09-21T04:30:18.295Z,99252.08
2022-09-21T04:31:23.256Z,99237.36
2022-09-21T04:32:25.981Z,99237.36
2022-09-21T04:33:29.891Z,99253.05
2022-09-21T04:34:33.879Z,99253.91
2022-09-21T04:35:37.798Z,99251.25
2022-09-21T04:36:42.235Z,99254.87
2022-09-21T04:37:46.334Z,99249.64
2022-09-21T04:38:50.469Z,99249.64
2022-09-21T04:39:54.380Z,99250.48
2022-09-21T04:40:58.333Z,99250.48
2022-09-21T04:42:02.821Z,99245.14
2022-09-21T04:43:05.574Z,99254.00
2022-09-21T04:44:08.146Z,99251.33
2022-09-21T04:45:11.073Z,99250.38
2022-09-21T04:46:15.378Z,99250.48
2022-09-21T04:47:17.931Z,99255.71
2022-09-21T04:48:20.774Z,99251.33
2022-09-21T04:49:23.528Z,99250.48
2022-09-21T04:50:28.860Z,99252.20
2022-09-21T04:51:32.868Z,99244.19
2022-09-21T04:52:35.041Z,99242.47
2022-09-21T04:53:37.914Z,99255.83
2022-09-21T04:54:40.685Z,99251.33
2022-09-21T04:55:44.550Z,99247.81
2022-09-21T04:56:46.907Z,99249.53
2022-09-21T04:57:48.884Z,99246.86
2022-09-21T04:58:50.992Z,99250.38
2022-09-21T04:59:53.295Z,99245.03
2022-09-21T05:00:58.488Z,99245.03
2022-09-21T05:02:00.706Z,99248.57
2022-09-21T05:03:04.108Z,99253.05
2022-09-21T05:04:06.427Z,99246.74
2022-09-21T05:05:08.851Z,99254.76
2022-09-21T05:06:11.963Z,99247.58
2022-09-21T05:07:14.449Z,99252.92
2022-09-21T05:08:16.570Z,99245.78
2022-09-21T05:09:18.779Z,99253.80
2022-09-21T05:10:20.970Z,99256.47
2022-09-21T05:11:23.703Z,99257.31
2022-09-21T05:12:26.893Z,99253.80
2022-09-21T05:13:28.934Z,99253.80
2022-09-21T05:14:31.835Z,99254.64
2022-09-21T05:15:34.650Z,99261.81
2022-09-21T05:16:37.167Z,99257.43
2022-09-21T05:17:41.269Z,99264.48
2022-09-21T05:18:43.980Z,99269.83
2022-09-21T05:19:46.463Z,99270.78
2022-09-21T05:20:55.580Z,99264.48
2022-09-21T05:21:58.161Z,99267.16
2022-09-21T05:23:00.644Z,99261.81
2022-09-21T05:24:04.827Z,99273.34
2022-09-21T05:25:08.568Z,99273.34
2022-09-21T05:26:11.513Z,99266.17
2022-09-21T05:27:14.194Z,99269.83
2022-09-21T05:28:17.641Z,99269.83
2022-09-21T05:29:20.567Z,99272.50
2022-09-21T05:30:23.366Z,99273.34
2022-09-21T05:31:31.362Z,99284.03
2022-09-21T05:34:26.096Z,99274.36
2022-09-21T05:35:39.134Z,99251.38
2022-09-21T05:36:51.175Z,99283.30
2022-09-21T05:39:14.456Z,99276.42
2022-09-21T05:40:17.663Z,99287.05
2022-09-21T05:41:20.859Z,99276.36
2022-09-21T05:42:24.658Z,99277.31
2022-09-21T05:43:28.171Z,99277.31
2022-09-21T05:44:30.935Z,99280.95
2022-09-21T05:45:33.897Z,99275.61
2022-09-21T05:46:40.456Z,99280.11
2022-09-21T05:48:16.621Z,99280.11
2022-09-21T05:49:22.139Z,99283.62
2022-09-21T05:50:31.142Z,99280.11
2022-09-21T05:53:41.198Z,99276.85
2022-09-21T05:55:09.689Z,99276.80
2022-09-21T05:58:00.771Z,99283.39
2022-09-21T06:00:42.420Z,99283.62
2022-09-21T06:03:27.948Z,99283.84
2022-09-21T06:04:31.745Z,99288.22
2022-09-21T06:05:34.095Z,99290.05
2022-09-21T06:06:36.740Z,99282.98
2022-09-21T06:07:39.135Z,99285.66
2022-09-21T06:08:41.336Z,99291.87
2022-09-21T06:09:43.787Z,99292.72
2022-09-21T06:10:45.893Z,99290.05
2022-09-21T06:11:48.895Z,99291.80
2022-09-21T06:12:50.956Z,99289.20
2022-09-21T06:13:52.950Z,99297.13
2022-09-21T06:14:56.615Z,99290.89
2022-09-21T06:16:02.251Z,99297.13
2022-09-21T06:17:04.721Z,99295.30
2022-09-21T06:18:07.182Z,99299.69
2022-09-21T06:19:13.384Z,99297.86
2022-09-21T06:20:16.077Z,99297.86
2022-09-21T06:21:18.311Z,99301.41
2022-09-21T06:22:20.992Z,99310.26
2022-09-21T06:23:23.569Z,99306.75
2022-09-21T06:24:25.671Z,99307.59
2022-09-21T06:25:28.320Z,99304.92
2022-09-21T06:26:30.942Z,99311.10
2022-09-21T06:27:33.046Z,99309.30
2022-09-21T06:28:35.134Z,99303.09
2022-09-21T06:29:37.457Z,99304.80
2022-09-21T06:30:40.661Z,99303.96
2022-09-21T06:31:43.946Z,99303.96
2022-09-21T06:32:47.058Z,99305.68
2022-09-21T06:33:49.062Z,99307.48
2022-09-21T06:34:51.510Z,99301.06
2022-09-21T06:35:54.529Z,99309.84
2022-09-21T06:36:57.159Z,99306.94
2022-09-21T06:38:00.257Z,99307.66
2022-09-21T06:39:02.629Z,99310.22
2022-09-21T06:40:06.430Z,99316.33
2022-09-21T06:41:09.785Z,99308.19
2022-09-21T06:42:12.367Z,99310.86
2022-09-21T06:43:15.427Z,99304.98
2022-09-21T06:44:18.001Z,99304.98
2022-09-21T06:45:20.375Z,99318.03
2022-09-21T06:46:22.998Z,99316.20
2022-09-21T06:47:24.964Z,99315.25
2022-09-21T06:48:28.144Z,99313.30
2022-09-21T06:49:30.504Z,99320.48
2022-09-21T06:50:32.762Z,99317.80
2022-09-21T06:51:34.853Z,99320.48
2022-09-21T06:52:36.831Z,99321.44
2022-09-21T06:53:38.822Z,99317.05
2022-09-21T06:54:41.484Z,99313.53
2022-09-21T06:55:43.563Z,99313.53
2022-09-21T06:56:45.757Z,99314.49
2022-09-21T06:57:48.821Z,99324.45
2022-09-21T06:58:51.310Z,99316.55
2022-09-21T06:59:53.872Z,99317.39
2022-09-21T07:00:56.283Z,99314.72
2022-09-21T07:02:06.381Z,99309.38
2022-09-21T07:03:10.624Z,99307.78
2022-09-21T07:04:12.666Z,99319.53
2022-09-21T07:05:15.961Z,99312.51
2022-09-21T07:06:18.558Z,99316.86
2022-09-21T07:07:20.544Z,99313.47
2022-09-21T07:10:31.774Z,99324.03
2022-09-21T07:11:33.743Z,99321.25
2022-09-21T07:12:36.178Z,99322.09
2022-09-21T07:13:38.970Z,99324.88
2022-09-21T07:14:41.642Z,99326.59
2022-09-21T07:15:43.871Z,99329.27
2022-09-21T07:16:45.960Z,99328.42
2022-09-21T07:17:52.595Z,99325.75
2022-09-21T07:18:53.207Z,99330.22
2022-09-21T07:19:55.452Z,99330.22
2022-09-21T07:20:58.686Z,99331.20
2022-09-21T07:22:00.901Z,99332.16
2022-09-21T07:23:11.148Z,99333.88
2022-09-21T07:24:13.250Z,99335.45
2022-09-21T07:25:15.494Z,99332.66
2022-09-21T07:26:18.797Z,99340.67
2022-09-21T07:27:20.943Z,99340.67
2022-09-21T07:28:25.137Z,99330.98
2022-09-21T07:29:27.662Z,99336.33
2022-09-21T07:30:29.917Z,99342.39
2022-09-21T07:31:32.033Z,99344.95
2022-09-21T07:32:35.844Z,99346.55
2022-09-21T07:33:38.203Z,99343.04
2022-09-21T07:34:40.425Z,99344.00
2022-09-21T07:35:52.005Z,99339.49
2022-09-21T07:36:54.674Z,99335.02
2022-09-21T07:38:01.631Z,99337.58
2022-09-21T07:39:03.949Z,99345.59
2022-09-21T07:40:07.954Z,99337.58
2022-09-21T07:41:12.218Z,99340.48
2022-09-21T07:42:15.312Z,99337.05
2022-09-21T07:43:17.995Z,99347.96
2022-09-21T07:44:19.980Z,99347.23
2022-09-21T07:45:23.457Z,99344.56
2022-09-21T07:46:26.376Z,99344.03
2022-09-21T07:47:28.387Z,99344.03
2022-09-21T07:48:31.441Z,99351.28
2022-09-21T07:49:33.685Z,99351.28
2022-09-21T07:50:36.542Z,99354.83
2022-09-21T07:51:39.203Z,99344.14
2022-09-21T07:52:41.193Z,99348.50
2022-09-21T07:53:43.457Z,99346.59
2022-09-21T07:54:45.442Z,99349.98
2022-09-21T07:55:47.514Z,99352.66
2022-09-21T07:56:50.095Z,99348.42
2022-09-21T07:57:52.069Z,99354.72
2022-09-21T07:58:54.240Z,99354.83
2022-09-21T07:59:56.974Z,99363.57
2022-09-21T08:00:59.283Z,99347.66
2022-09-21T08:02:01.361Z,99359.95
2022-09-21T08:03:04.547Z,99362.50
2022-09-21T08:04:08.434Z,99355.25
2022-09-21T08:05:10.714Z,99353.53
2022-09-21T08:06:14.421Z,99357.81
2022-09-21T08:07:16.481Z,99353.30
2022-09-21T08:08:19.589Z,99360.48
2022-09-21T08:09:21.736Z,99366.89
2022-09-21T08:10:24.391Z,99354.60
2022-09-21T08:11:27.601Z,99359.19
2022-09-21T08:12:30.113Z,99367.20
2022-09-21T08:13:32.194Z,99361.86
2022-09-21T08:14:35.376Z,99358.56
2022-09-21T08:15:49.479Z,99358.76
2022-09-21T08:16:42.628Z,99364.10
2022-09-21T08:17:45.872Z,99369.55
2022-09-21T08:18:50.569Z,99370.40
2022-09-21T08:19:53.215Z,99362.27
2022-09-21T08:20:58.981Z,99365.78
2022-09-21T08:22:03.113Z,99360.33
2022-09-21T08:23:05.798Z,99363.23
2022-09-21T08:24:09.068Z,99365.28
2022-09-21T08:25:11.205Z,99360.35
2022-09-21T08:26:15.130Z,99371.38
2022-09-21T08:27:17.554Z,99364.53
2022-09-21T08:28:20.118Z,99370.20
2022-09-21T08:29:23.715Z,99371.38
2022-09-21T08:30:25.986Z,99368.82
2022-09-21T08:31:28.186Z,99370.62
2022-09-21T08:32:50.038Z,99370.84
2022-09-21T08:33:34.763Z,99372.23
2022-09-21T08:34:37.796Z,99370.73
2022-09-21T08:35:40.002Z,99374.68
2022-09-21T08:36:42.195Z,99376.80
2022-09-21T08:37:45.654Z,99368.24
2022-09-21T08:38:47.655Z,99375.63
2022-09-21T08:39:49.642Z,99371.23
2022-09-21T08:40:52.307Z,99367.17
2022-09-21T08:42:04.011Z,99376.34
2022-09-21T08:43:11.112Z,99374.73
2022-09-21T08:44:33.385Z,99372.83
2022-09-21T08:45:43.998Z,99372.72
2022-09-21T08:46:48.155Z,99370.90
2022-09-21T08:47:52.430Z,99375.50
2022-09-21T08:49:08.368Z,99371.22
2022-09-21T08:51:37.375Z,99367.39
2022-09-21T08:52:41.299Z,99374.14
2022-09-21T08:53:45.590Z,99375.02
2022-09-21T08:55:03.936Z,99376.92
2022-09-21T08:56:10.351Z,99375.23
2022-09-21T08:57:13.394Z,99376.08
2022-09-21T08:58:21.566Z,99377.34
2022-09-21T08:59:25.186Z,99380.12
2022-09-21T09:00:27.467Z,99378.40
2022-09-21T09:01:45.420Z,99386.61
2022-09-21T09:03:09.629Z,99381.38
2022-09-21T09:06:11.840Z,99381.73
2022-09-21T09:07:39.881Z,99384.16
2022-09-21T09:09:02.606Z,99385.31
2022-09-21T09:10:29.453Z,99383.98
2022-09-21T09:13:26.982Z,99383.49
2022-09-21T09:14:49.582Z,99391.55
2022-09-21T09:16:01.412Z,99396.33
2022-09-21T09:17:20.051Z,99390.53
2022-09-21T09:18:51.093Z,99385.41
2022-09-21T09:20:00.012Z,99395.30
2022-09-21T09:21:08.535Z,99396.17
2022-09-21T09:22:12.465Z,99388.08
2022-09-21T09:24:43.033Z,99389.00
2022-09-21T09:25:46.499Z,99388.71
2022-09-21T09:26:52.129Z,99383.31
2022-09-21T09:27:55.620Z,99392.15
2022-09-21T09:30:15.321Z,99381.67
2022-09-21T09:31:23.818Z,99383.81
2022-09-21T09:33:59.833Z,99382.14
2022-09-21T09:35:08.460Z,99387.14
2022-09-21T09:36:12.119Z,99389.91
2022-09-21T09:37:15.481Z,99381.80
2022-09-21T09:38:30.380Z,99387.91
2022-09-21T09:39:32.634Z,99391.23
2022-09-21T09:40:47.514Z,99388.36
2022-09-21T09:42:10.364Z,99386.45
2022-09-21T09:45:08.217Z,99391.63
2022-09-21T09:46:38.050Z,99393.02
2022-09-21T09:49:31.248Z,99391.20
2022-09-21T09:51:48.334Z,99393.66
2022-09-21T09:52:51.457Z,99387.35
2022-09-21T09:53:53.581Z,99387.35
2022-09-21T09:54:55.683Z,99390.86
2022-09-21T09:55:57.772Z,99391.63
2022-09-21T09:57:03.122Z,99388.64
2022-09-21T09:58:06.968Z,99394.64
2022-09-21T10:00:26.618Z,99396.98
2022-09-21T10:01:44.893Z,99388.75
2022-09-21T10:02:52.126Z,99395.81
2022-09-21T10:04:14.360Z,99397.53
2022-09-21T10:05:33.810Z,99396.55
2022-09-21T10:06:39.371Z,99396.66
2022-09-21T10:07:43.734Z,99392.08
2022-09-21T10:08:46.114Z,99392.08
2022-09-21T10:09:49.178Z,99397.70
2022-09-21T10:10:52.569Z,99407.93
2022-09-21T10:13:19.270Z,99390.34
2022-09-21T10:14:22.957Z,99398.36
2022-09-21T10:15:25.287Z,99398.78
2022-09-21T10:16:27.433Z,99393.56
2022-09-21T10:17:29.565Z,99407.73
2022-09-21T10:18:55.103Z,99397.06
2022-09-21T10:20:01.022Z,99400.47
2022-09-21T10:21:06.917Z,99402.19
2022-09-21T10:22:17.895Z,99404.02
2022-09-21T10:23:20.499Z,99404.86
2022-09-21T10:24:29.821Z,99395.91
2022-09-21T10:25:33.215Z,99401.03
2022-09-21T10:26:45.301Z,99399.13
2022-09-21T10:27:50.246Z,99414.16
2022-09-21T10:28:59.891Z,99408.82
2022-09-21T10:30:03.048Z,99408.09
2022-09-21T10:33:45.306Z,99413.91
2022-09-21T10:35:06.144Z,99412.02
2022-09-21T10:36:13.466Z,99410.19
2022-09-21T10:37:32.363Z,99410.19
2022-09-21T10:38:35.395Z,99414.47
2022-09-21T10:39:39.576Z,99414.27
2022-09-21T10:40:42.525Z,99425.81
2022-09-21T10:41:51.508Z,99415.03
2022-09-21T10:45:17.666Z,99422.75
2022-09-21T10:46:24.717Z,99423.59
2022-09-21T10:47:34.999Z,99427.23
2022-09-21T10:48:37.217Z,99420.92
2022-09-21T10:50:55.791Z,99420.42
2022-09-21T10:51:59.829Z,99426.58
2022-09-21T10:53:11.751Z,99429.24
2022-09-21T10:54:18.023Z,99423.03
2022-09-21T10:55:21.160Z,99427.49
2022-09-21T10:56:25.637Z,99428.30
2022-09-21T10:57:27.965Z,99427.45
2022-09-21T10:58:30.289Z,99421.14
2022-09-21T10:59:33.150Z,99426.26
2022-09-21T11:00:40.972Z,99431.59
2022-09-21T11:01:47.642Z,99421.03
2022-09-21T11:02:49.837Z,99422.85
2022-09-21T11:04:05.903Z,99430.02
2022-09-21T11:05:23.157Z,99430.97
2022-09-21T11:06:28.909Z,99425.70
2022-09-21T11:07:36.761Z,99424.09
2022-09-21T11:11:52.738Z,99426.36
2022-09-21T11:13:15.536Z,99424.48
2022-09-21T11:14:33.724Z,99436.13
2022-09-21T11:17:06.004Z,99430.97
2022-09-21T11:18:41.380Z,99427.25
2022-09-21T11:19:50.488Z,99430.89
2022-09-21T11:20:56.182Z,99430.02
2022-09-21T11:22:14.037Z,99415.95
2022-09-21T11:23:22.816Z,99418.61
2022-09-21T11:24:32.718Z,99432.05
2022-09-21T11:25:44.352Z,99422.33
2022-09-21T11:26:55.912Z,99420.52
2022-09-21T11:28:07.961Z,99421.39
2022-09-21T11:29:29.304Z,99417.73
2022-09-21T11:31:50.567Z,99424.78
2022-09-21T11:33:09.217Z,99426.20
2022-09-21T11:34:25.381Z,99420.66
2022-09-21T11:35:49.116Z,99415.03
2022-09-21T11:37:04.219Z,99425.52
2022-09-21T11:38:33.745Z,99419.88
2022-09-21T11:39:55.478Z,99425.76
2022-09-21T11:41:04.269Z,99427.27
2022-09-21T11:42:30.261Z,99427.16
2022-09-21T11:44:58.211Z,99424.22
2022-09-21T11:46:25.801Z,99425.67
2022-09-21T11:47:44.299Z,99424.62
2022-09-21T11:49:05.702Z,99421.73
2022-09-21T11:50:31.105Z,99425.17
2022-09-21T11:51:57.280Z,99426.78
2022-09-21T11:53:04.753Z,99426.56
2022-09-21T11:54:17.026Z,99423.78
2022-09-21T11:55:40.404Z,99430.00
2022-09-21T11:56:58.782Z,99429.78
2022-09-21T11:58:34.677Z,99426.12
2022-09-21T11:59:55.352Z,99419.84
2022-09-21T12:02:52.807Z,99418.16
2022-09-21T12:04:10.369Z,99419.63
2022-09-21T12:05:40.428Z,99420.50
2022-09-21T12:06:46.487Z,99419.55
2022-09-21T12:08:12.016Z,99421.23
2022-09-21T12:09:42.793Z,99423.80
2022-09-21T12:11:14.263Z,99424.67
2022-09-21T12:13:47.795Z,99420.28
2022-09-21T12:14:57.233Z,99421.89
2022-09-21T12:16:29.209Z,99423.61
2022-09-21T12:17:51.993Z,99419.95
2022-09-21T12:19:13.801Z,99429.46
2022-09-21T12:21:57.518Z,99424.98
2022-09-21T12:23:02.804Z,99437.28
2022-09-21T12:24:14.226Z,99430.22
2022-09-21T12:25:21.571Z,99438.02
2022-09-21T12:26:27.094Z,99424.66
2022-09-21T12:27:36.192Z,99427.22
2022-09-21T12:28:47.228Z,99433.33
2022-09-21T12:29:51.933Z,99434.06
2022-09-21T12:32:51.997Z,99417.11
2022-09-21T12:35:14.203Z,99428.55
2022-09-21T12:37:44.577Z,99426.61
2022-09-21T12:40:32.526Z,99422.88
2022-09-21T12:42:14.256Z,99426.19
2022-09-21T12:43:48.024Z,99419.89
2022-09-21T12:46:23.371Z,99428.84
2022-09-21T12:47:39.617Z,99442.09
2022-09-21T12:48:41.656Z,99426.95
2022-09-21T12:49:47.581Z,99418.94
2022-09-21T12:52:05.312Z,99427.77
2022-09-21T12:53:11.477Z,99424.05
2022-09-21T12:56:06.435Z,99427.58
2022-09-21T12:57:40.739Z,99428.22
2022-09-21T12:59:02.452Z,99431.73
2022-09-21T13:00:10.197Z,99433.45
2022-09-21T13:01:34.613Z,99437.84
2022-09-21T13:04:17.594Z,99423.61
2022-09-21T13:05:29.210Z,99433.34
2022-09-21T13:06:48.427Z,99428.00
2022-09-21T13:08:06.939Z,99428.95
2022-09-21T13:09:13.761Z,99435.17
2022-09-21T13:10:40.817Z,99428.11
2022-09-21T13:11:53.602Z,99428.11
2022-09-21T13:12:58.746Z,99428.00
2022-09-21T13:14:02.915Z,99430.66
2022-09-21T13:15:18.011Z,99427.05
2022-09-21T13:16:31.740Z,99427.05
2022-09-21T13:17:34.304Z,99425.21
2022-09-21T13:18:37.591Z,99432.16
2022-09-21T13:19:40.137Z,99426.81
2022-09-21T13:20:42.367Z,99429.37
2022-09-21T13:21:44.494Z,99436.44
2022-09-21T13:22:47.715Z,99432.81
2022-09-21T13:24:01.013Z,99425.64
2022-09-21T13:26:33.599Z,99424.66
2022-09-21T13:28:04.991Z,99430.76
2022-09-21T13:29:21.133Z,99429.80
2022-09-21T13:30:29.511Z,99427.97
2022-09-21T13:32:00.604Z,99429.69
2022-09-21T13:33:07.162Z,99427.02
2022-09-21T13:34:27.108Z,99425.19
2022-09-21T13:36:00.015Z,99427.86
2022-09-21T13:37:21.644Z,99433.12
2022-09-21T13:40:04.797Z,99420.80
2022-09-21T13:41:35.434Z,99422.44
2022-09-21T13:42:36.010Z,99426.91
2022-09-21T13:43:50.638Z,99427.67
2022-09-21T13:44:52.874Z,99423.16
2022-09-21T13:45:56.410Z,99419.53
2022-09-21T13:46:58.931Z,99419.42
2022-09-21T13:48:01.956Z,99419.31
2022-09-21T13:49:14.409Z,99431.72
2022-09-21T13:50:29.486Z,99425.38
2022-09-21T13:51:34.634Z,99426.14
2022-09-21T13:53:55.439Z,99419.92
2022-09-21T13:55:02.614Z,99419.84
2022-09-21T13:56:19.101Z,99421.53
2022-09-21T13:58:47.682Z,99423.32
2022-09-21T14:00:02.552Z,99425.80
2022-09-21T14:02:32.201Z,99420.53
2022-09-21T14:03:40.337Z,99428.36
2022-09-21T14:04:42.732Z,99423.02
2022-09-21T14:05:45.976Z,99433.62
2022-09-21T14:06:48.555Z,99436.19
2022-09-21T14:09:33.656Z,99428.97
2022-09-21T14:10:36.840Z,99425.27
2022-09-21T14:11:40.340Z,99429.66
2022-09-21T14:12:42.571Z,99427.83
2022-09-21T14:13:47.389Z,99432.22
2022-09-21T14:15:11.393Z,99427.59
2022-09-21T14:17:42.332Z,99425.86
2022-09-21T14:18:44.365Z,99427.36
2022-09-21T14:19:50.126Z,99431.03
2022-09-21T14:21:13.101Z,99426.52
2022-09-21T14:22:19.023Z,99423.84
2022-09-21T14:23:24.963Z,99433.59
2022-09-21T14:24:38.395Z,99418.39
2022-09-21T14:27:12.744Z,99422.95
2022-09-21T14:28:16.672Z,99423.73
2022-09-21T14:30:39.561Z,99428.31
2022-09-21T14:31:41.662Z,99431.64
2022-09-21T14:33:03.043Z,99429.84
2022-09-21T14:34:05.811Z,99425.34